sensor_id;sensor_type;location;lat;lon;timestamp;P1;durP1;ratioP1;P2;durP2;ratioP2
37131;SDS011;23035;50.032;21.978;2022-08-14T00:04:21;19.20;;;13.15;;
37131;SDS011;23035;50.032;21.978;2022-08-14T00:10:09;16.88;;;12.93;;
37131;SDS011;23035;50.032;21.978;2022-08-14T00:16:07;16.42;;;9.90;;
37131;SDS011;23035;50.032;21.978;2022-08-14T00:22:04;12.02;;;8.95;;
37131;SDS011;23035;50.032;21.978;2022-08-14T00:27:55;12.93;;;8.82;;
37131;SDS011;23035;50.032;21.978;2022-08-14T00:33:38;8.98;;;7.10;;
37131;SDS011;23035;50.032;21.978;2022-08-14T00:39:24;8.90;;;6.63;;
37131;SDS011;23035;50.032;21.978;2022-08-14T00:45:05;9.57;;;7.22;;
37131;SDS011;23035;50.032;21.978;2022-08-14T00:50:44;10.25;;;6.82;;
37131;SDS011;23035;50.032;21.978;2022-08-14T00:56:22;11.57;;;7.03;;
37131;SDS011;23035;50.032;21.978;2022-08-14T01:02:02;7.72;;;5.35;;
37131;SDS011;23035;50.032;21.978;2022-08-14T01:07:40;7.07;;;5.63;;
37131;SDS011;23035;50.032;21.978;2022-08-14T01:13:19;7.95;;;5.88;;
37131;SDS011;23035;50.032;21.978;2022-08-14T01:19:04;9.50;;;6.13;;
37131;SDS011;23035;50.032;21.978;2022-08-14T01:24:59;6.00;;;4.93;;
37131;SDS011;23035;50.032;21.978;2022-08-14T01:30:37;6.20;;;5.03;;
37131;SDS011;23035;50.032;21.978;2022-08-14T01:36:17;7.15;;;5.00;;
37131;SDS011;23035;50.032;21.978;2022-08-14T01:41:57;6.88;;;5.30;;
37131;SDS011;23035;50.032;21.978;2022-08-14T01:47:54;5.28;;;3.97;;
37131;SDS011;23035;50.032;21.978;2022-08-14T01:53:34;11.18;;;4.20;;
37131;SDS011;23035;50.032;21.978;2022-08-14T01:59:19;6.25;;;4.72;;
37131;SDS011;23035;50.032;21.978;2022-08-14T02:05:04;5.35;;;4.47;;
37131;SDS011;23035;50.032;21.978;2022-08-14T02:10:43;5.40;;;4.43;;
37131;SDS011;23035;50.032;21.978;2022-08-14T02:16:43;4.95;;;4.22;;
37131;SDS011;23035;50.032;21.978;2022-08-14T02:22:22;6.97;;;5.22;;
37131;SDS011;23035;50.032;21.978;2022-08-14T02:28:08;9.88;;;6.57;;
37131;SDS011;23035;50.032;21.978;2022-08-14T02:34:07;7.70;;;6.38;;
37131;SDS011;23035;50.032;21.978;2022-08-14T02:39:56;12.70;;;7.60;;
37131;SDS011;23035;50.032;21.978;2022-08-14T02:45:33;13.65;;;8.95;;
37131;SDS011;23035;50.032;21.978;2022-08-14T02:51:13;12.45;;;8.23;;
37131;SDS011;23035;50.032;21.978;2022-08-14T02:56:51;10.65;;;8.15;;
37131;SDS011;23035;50.032;21.978;2022-08-14T03:02:37;19.55;;;9.82;;
37131;SDS011;23035;50.032;21.978;2022-08-14T03:08:21;12.52;;;9.70;;
37131;SDS011;23035;50.032;21.978;2022-08-14T03:14:06;13.80;;;10.32;;
37131;SDS011;23035;50.032;21.978;2022-08-14T03:19:43;12.80;;;9.75;;
37131;SDS011;23035;50.032;21.978;2022-08-14T03:25:21;11.48;;;9.32;;
37131;SDS011;23035;50.032;21.978;2022-08-14T03:31:01;14.57;;;10.15;;
37131;SDS011;23035;50.032;21.978;2022-08-14T03:36:38;15.38;;;10.15;;
37131;SDS011;23035;50.032;21.978;2022-08-14T03:42:36;11.98;;;10.00;;
37131;SDS011;23035;50.032;21.978;2022-08-14T03:48:14;13.30;;;9.48;;
37131;SDS011;23035;50.032;21.978;2022-08-14T03:54:02;14.27;;;8.90;;
37131;SDS011;23035;50.032;21.978;2022-08-14T03:59:42;13.18;;;10.13;;
37131;SDS011;23035;50.032;21.978;2022-08-14T04:05:25;13.73;;;11.15;;
37131;SDS011;23035;50.032;21.978;2022-08-14T04:11:09;14.00;;;11.20;;
37131;SDS011;23035;50.032;21.978;2022-08-14T04:16:47;13.50;;;10.95;;
37131;SDS011;23035;50.032;21.978;2022-08-14T04:22:24;18.42;;;11.75;;
37131;SDS011;23035;50.032;21.978;2022-08-14T04:28:01;16.08;;;11.57;;
37131;SDS011;23035;50.032;21.978;2022-08-14T04:34:00;17.13;;;12.07;;
37131;SDS011;23035;50.032;21.978;2022-08-14T04:39:48;15.88;;;11.05;;
37131;SDS011;23035;50.032;21.978;2022-08-14T04:45:48;16.65;;;11.65;;
37131;SDS011;23035;50.032;21.978;2022-08-14T04:51:28;17.50;;;10.45;;
37131;SDS011;23035;50.032;21.978;2022-08-14T04:57:16;15.93;;;11.60;;
37131;SDS011;23035;50.032;21.978;2022-08-14T05:02:53;14.88;;;10.50;;
37131;SDS011;23035;50.032;21.978;2022-08-14T05:08:32;17.52;;;11.05;;
37131;SDS011;23035;50.032;21.978;2022-08-14T05:14:20;16.08;;;11.63;;
37131;SDS011;23035;50.032;21.978;2022-08-14T05:20:16;15.07;;;11.85;;
37131;SDS011;23035;50.032;21.978;2022-08-14T05:26:14;14.88;;;10.00;;
37131;SDS011;23035;50.032;21.978;2022-08-14T05:31:51;15.07;;;10.68;;
37131;SDS011;23035;50.032;21.978;2022-08-14T05:37:36;17.42;;;11.38;;
37131;SDS011;23035;50.032;21.978;2022-08-14T05:43:16;16.00;;;12.55;;
37131;SDS011;23035;50.032;21.978;2022-08-14T05:49:02;14.70;;;10.57;;
37131;SDS011;23035;50.032;21.978;2022-08-14T05:54:39;13.40;;;11.07;;
37131;SDS011;23035;50.032;21.978;2022-08-14T06:00:18;14.57;;;11.10;;
37131;SDS011;23035;50.032;21.978;2022-08-14T06:06:00;12.90;;;10.57;;
37131;SDS011;23035;50.032;21.978;2022-08-14T06:11:37;17.00;;;13.00;;
37131;SDS011;23035;50.032;21.978;2022-08-14T06:17:15;15.13;;;10.88;;
37131;SDS011;23035;50.032;21.978;2022-08-14T06:23:07;14.07;;;9.65;;
37131;SDS011;23035;50.032;21.978;2022-08-14T06:28:45;13.38;;;9.00;;
37131;SDS011;23035;50.032;21.978;2022-08-14T06:34:23;16.95;;;13.77;;
37131;SDS011;23035;50.032;21.978;2022-08-14T06:40:21;13.90;;;11.02;;
37131;SDS011;23035;50.032;21.978;2022-08-14T06:46:03;16.63;;;12.82;;
37131;SDS011;23035;50.032;21.978;2022-08-14T06:51:56;20.17;;;12.65;;
37131;SDS011;23035;50.032;21.978;2022-08-14T06:57:37;16.70;;;10.30;;
37131;SDS011;23035;50.032;21.978;2022-08-14T07:03:16;19.90;;;12.60;;
37131;SDS011;23035;50.032;21.978;2022-08-14T07:15:05;14.00;;;9.80;;
37131;SDS011;23035;50.032;21.978;2022-08-14T07:20:43;15.13;;;11.48;;
37131;SDS011;23035;50.032;21.978;2022-08-14T07:27:18;13.68;;;10.88;;
37131;SDS011;23035;50.032;21.978;2022-08-14T07:33:01;12.63;;;10.13;;
37131;SDS011;23035;50.032;21.978;2022-08-14T07:38:41;14.75;;;11.18;;
37131;SDS011;23035;50.032;21.978;2022-08-14T07:44:20;16.27;;;11.27;;
37131;SDS011;23035;50.032;21.978;2022-08-14T07:50:11;14.73;;;12.98;;
37131;SDS011;23035;50.032;21.978;2022-08-14T07:55:58;16.40;;;11.45;;
37131;SDS011;23035;50.032;21.978;2022-08-14T08:01:56;16.80;;;13.98;;
37131;SDS011;23035;50.032;21.978;2022-08-14T08:07:40;18.08;;;13.20;;
37131;SDS011;23035;50.032;21.978;2022-08-14T08:13:18;17.17;;;15.02;;
37131;SDS011;23035;50.032;21.978;2022-08-14T08:19:01;17.63;;;13.48;;
37131;SDS011;23035;50.032;21.978;2022-08-14T08:24:39;16.92;;;13.80;;
37131;SDS011;23035;50.032;21.978;2022-08-14T08:30:18;20.45;;;15.23;;
37131;SDS011;23035;50.032;21.978;2022-08-14T08:35:58;26.52;;;18.77;;
37131;SDS011;23035;50.032;21.978;2022-08-14T08:41:42;19.08;;;15.32;;
37131;SDS011;23035;50.032;21.978;2022-08-14T08:47:20;24.77;;;16.67;;
37131;SDS011;23035;50.032;21.978;2022-08-14T08:52:59;15.00;;;11.77;;
37131;SDS011;23035;50.032;21.978;2022-08-14T08:58:37;14.98;;;11.82;;
37131;SDS011;23035;50.032;21.978;2022-08-14T09:04:14;15.80;;;12.43;;
37131;SDS011;23035;50.032;21.978;2022-08-14T09:09:57;20.65;;;13.88;;
37131;SDS011;23035;50.032;21.978;2022-08-14T09:15:43;17.50;;;13.35;;
37131;SDS011;23035;50.032;21.978;2022-08-14T09:21:40;14.30;;;11.38;;
37131;SDS011;23035;50.032;21.978;2022-08-14T09:27:18;14.30;;;11.35;;
37131;SDS011;23035;50.032;21.978;2022-08-14T09:32:59;23.30;;;15.48;;
37131;SDS011;23035;50.032;21.978;2022-08-14T09:39:00;28.83;;;17.63;;
37131;SDS011;23035;50.032;21.978;2022-08-14T09:44:49;25.17;;;17.48;;
37131;SDS011;23035;50.032;21.978;2022-08-14T09:50:43;24.20;;;16.02;;
37131;SDS011;23035;50.032;21.978;2022-08-14T09:56:20;22.48;;;15.27;;
37131;SDS011;23035;50.032;21.978;2022-08-14T10:01:59;27.83;;;19.02;;
37131;SDS011;23035;50.032;21.978;2022-08-14T10:07:46;29.25;;;20.27;;
37131;SDS011;23035;50.032;21.978;2022-08-14T10:13:35;31.25;;;21.27;;
37131;SDS011;23035;50.032;21.978;2022-08-14T10:19:15;35.28;;;22.92;;
37131;SDS011;23035;50.032;21.978;2022-08-14T10:24:57;40.83;;;25.95;;
37131;SDS011;23035;50.032;21.978;2022-08-14T10:30:36;35.20;;;24.55;;
37131;SDS011;23035;50.032;21.978;2022-08-14T10:36:25;32.38;;;22.35;;
37131;SDS011;23035;50.032;21.978;2022-08-14T10:42:10;30.13;;;22.80;;
37131;SDS011;23035;50.032;21.978;2022-08-14T10:47:48;28.80;;;20.05;;
37131;SDS011;23035;50.032;21.978;2022-08-14T10:53:33;27.52;;;18.30;;
37131;SDS011;23035;50.032;21.978;2022-08-14T10:59:17;26.95;;;17.25;;
37131;SDS011;23035;50.032;21.978;2022-08-14T11:05:02;25.40;;;18.98;;
37131;SDS011;23035;50.032;21.978;2022-08-14T11:10:44;18.58;;;14.30;;
37131;SDS011;23035;50.032;21.978;2022-08-14T11:16:22;21.50;;;14.75;;
37131;SDS011;23035;50.032;21.978;2022-08-14T11:22:01;21.67;;;15.25;;
37131;SDS011;23035;50.032;21.978;2022-08-14T11:28:00;21.83;;;14.98;;
37131;SDS011;23035;50.032;21.978;2022-08-14T11:33:40;20.23;;;11.25;;
37131;SDS011;23035;50.032;21.978;2022-08-14T11:39:17;15.93;;;12.35;;
37131;SDS011;23035;50.032;21.978;2022-08-14T11:45:02;19.48;;;11.27;;
37131;SDS011;23035;50.032;21.978;2022-08-14T11:50:46;17.10;;;10.35;;
37131;SDS011;23035;50.032;21.978;2022-08-14T11:56:25;13.52;;;9.75;;
37131;SDS011;23035;50.032;21.978;2022-08-14T12:02:12;13.68;;;9.50;;
37131;SDS011;23035;50.032;21.978;2022-08-14T12:08:12;15.27;;;10.20;;
37131;SDS011;23035;50.032;21.978;2022-08-14T12:13:51;11.80;;;9.52;;
37131;SDS011;23035;50.032;21.978;2022-08-14T12:19:43;14.05;;;10.30;;
37131;SDS011;23035;50.032;21.978;2022-08-14T12:25:24;14.43;;;10.13;;
37131;SDS011;23035;50.032;21.978;2022-08-14T12:31:10;10.93;;;8.45;;
37131;SDS011;23035;50.032;21.978;2022-08-14T12:36:49;12.77;;;9.40;;
37131;SDS011;23035;50.032;21.978;2022-08-14T12:42:39;11.95;;;9.23;;
37131;SDS011;23035;50.032;21.978;2022-08-14T12:48:22;16.63;;;13.85;;
37131;SDS011;23035;50.032;21.978;2022-08-14T12:54:11;16.48;;;11.43;;
37131;SDS011;23035;50.032;21.978;2022-08-14T13:00:03;13.50;;;9.52;;
37131;SDS011;23035;50.032;21.978;2022-08-14T13:05:45;15.93;;;10.82;;
37131;SDS011;23035;50.032;21.978;2022-08-14T13:11:25;13.52;;;9.25;;
37131;SDS011;23035;50.032;21.978;2022-08-14T13:17:20;10.23;;;9.07;;
37131;SDS011;23035;50.032;21.978;2022-08-14T13:22:58;11.88;;;9.18;;
37131;SDS011;23035;50.032;21.978;2022-08-14T13:28:39;13.38;;;9.05;;
37131;SDS011;23035;50.032;21.978;2022-08-14T13:34:25;11.32;;;8.65;;
37131;SDS011;23035;50.032;21.978;2022-08-14T13:40:07;13.02;;;8.60;;
37131;SDS011;23035;50.032;21.978;2022-08-14T13:45:49;13.45;;;8.45;;
37131;SDS011;23035;50.032;21.978;2022-08-14T13:51:25;18.17;;;12.60;;
37131;SDS011;23035;50.032;21.978;2022-08-14T13:57:14;14.40;;;10.75;;
37131;SDS011;23035;50.032;21.978;2022-08-14T14:02:53;13.93;;;9.85;;
37131;SDS011;23035;50.032;21.978;2022-08-14T14:08:30;14.07;;;10.13;;
37131;SDS011;23035;50.032;21.978;2022-08-14T14:14:17;13.38;;;9.82;;
37131;SDS011;23035;50.032;21.978;2022-08-14T14:20:30;12.93;;;9.82;;
37131;SDS011;23035;50.032;21.978;2022-08-14T14:27:02;18.60;;;9.88;;
37131;SDS011;23035;50.032;21.978;2022-08-14T14:33:34;15.55;;;10.20;;
37131;SDS011;23035;50.032;21.978;2022-08-14T14:39:04;15.18;;;10.35;;
37131;SDS011;23035;50.032;21.978;2022-08-14T14:44:09;17.13;;;10.07;;
37131;SDS011;23035;50.032;21.978;2022-08-14T14:49:19;14.27;;;10.43;;
37131;SDS011;23035;50.032;21.978;2022-08-14T14:54:48;12.07;;;9.27;;
37131;SDS011;23035;50.032;21.978;2022-08-14T14:59:52;12.45;;;10.02;;
37131;SDS011;23035;50.032;21.978;2022-08-14T15:04:56;16.42;;;11.07;;
37131;SDS011;23035;50.032;21.978;2022-08-14T15:10:03;21.27;;;12.90;;
37131;SDS011;23035;50.032;21.978;2022-08-14T15:15:27;16.23;;;10.43;;
37131;SDS011;23035;50.032;21.978;2022-08-14T15:20:33;20.73;;;13.30;;
37131;SDS011;23035;50.032;21.978;2022-08-14T15:25:41;17.92;;;8.80;;
37131;SDS011;23035;50.032;21.978;2022-08-14T15:30:54;9.30;;;6.70;;
37131;SDS011;23035;50.032;21.978;2022-08-14T15:36:00;9.88;;;6.82;;
37131;SDS011;23035;50.032;21.978;2022-08-14T15:41:19;13.30;;;5.75;;
37131;SDS011;23035;50.032;21.978;2022-08-14T15:46:24;11.38;;;6.28;;
37131;SDS011;23035;50.032;21.978;2022-08-14T15:51:46;7.55;;;5.63;;
37131;SDS011;23035;50.032;21.978;2022-08-14T15:56:57;10.45;;;5.45;;
37131;SDS011;23035;50.032;21.978;2022-08-14T16:02:01;11.05;;;7.97;;
37131;SDS011;23035;50.032;21.978;2022-08-14T16:07:10;16.08;;;13.02;;
37131;SDS011;23035;50.032;21.978;2022-08-14T16:12:17;12.55;;;7.80;;
37131;SDS011;23035;50.032;21.978;2022-08-14T16:17:40;12.25;;;6.63;;
37131;SDS011;23035;50.032;21.978;2022-08-14T16:22:45;11.23;;;6.28;;
37131;SDS011;23035;50.032;21.978;2022-08-14T16:28:00;9.77;;;5.78;;
37131;SDS011;23035;50.032;21.978;2022-08-14T16:33:08;12.23;;;6.63;;
37131;SDS011;23035;50.032;21.978;2022-08-14T16:38:34;7.20;;;5.60;;
37131;SDS011;23035;50.032;21.978;2022-08-14T16:44:00;10.73;;;5.90;;
37131;SDS011;23035;50.032;21.978;2022-08-14T16:49:06;12.55;;;7.13;;
37131;SDS011;23035;50.032;21.978;2022-08-14T16:54:12;12.15;;;8.77;;
37131;SDS011;23035;50.032;21.978;2022-08-14T16:59:37;18.50;;;11.53;;
37131;SDS011;23035;50.032;21.978;2022-08-14T17:05:13;13.27;;;6.53;;
37131;SDS011;23035;50.032;21.978;2022-08-14T17:10:18;14.77;;;7.97;;
37131;SDS011;23035;50.032;21.978;2022-08-14T17:15:31;10.68;;;7.63;;
37131;SDS011;23035;50.032;21.978;2022-08-14T17:20:46;18.60;;;8.30;;
37131;SDS011;23035;50.032;21.978;2022-08-14T17:26:06;22.65;;;8.73;;
37131;SDS011;23035;50.032;21.978;2022-08-14T17:31:14;12.05;;;8.18;;
37131;SDS011;23035;50.032;21.978;2022-08-14T17:36:18;11.93;;;8.13;;
37131;SDS011;23035;50.032;21.978;2022-08-14T17:41:26;13.57;;;7.80;;
37131;SDS011;23035;50.032;21.978;2022-08-14T17:46:39;12.43;;;8.68;;
37131;SDS011;23035;50.032;21.978;2022-08-14T17:51:58;16.88;;;9.60;;
37131;SDS011;23035;50.032;21.978;2022-08-14T17:57:10;14.90;;;9.63;;
37131;SDS011;23035;50.032;21.978;2022-08-14T18:02:17;17.13;;;10.23;;
37131;SDS011;23035;50.032;21.978;2022-08-14T18:07:32;37.10;;;25.70;;
37131;SDS011;23035;50.032;21.978;2022-08-14T18:12:57;15.85;;;9.85;;
37131;SDS011;23035;50.032;21.978;2022-08-14T18:18:05;18.08;;;11.18;;
37131;SDS011;23035;50.032;21.978;2022-08-14T18:23:13;14.35;;;11.07;;
37131;SDS011;23035;50.032;21.978;2022-08-14T18:28:18;15.43;;;9.17;;
37131;SDS011;23035;50.032;21.978;2022-08-14T18:33:52;14.57;;;8.75;;
37131;SDS011;23035;50.032;21.978;2022-08-14T18:50:21;16.52;;;9.65;;
37131;SDS011;23035;50.032;21.978;2022-08-14T18:55:48;14.23;;;9.97;;
37131;SDS011;23035;50.032;21.978;2022-08-14T19:01:03;18.45;;;10.63;;
37131;SDS011;23035;50.032;21.978;2022-08-14T19:06:38;14.05;;;11.02;;
37131;SDS011;23035;50.032;21.978;2022-08-14T19:12:03;16.38;;;9.13;;
37131;SDS011;23035;50.032;21.978;2022-08-14T19:22:44;13.50;;;9.15;;
37131;SDS011;23035;50.032;21.978;2022-08-14T19:33:46;34.78;;;19.90;;
37131;SDS011;23035;50.032;21.978;2022-08-14T19:38:56;14.82;;;9.05;;
37131;SDS011;23035;50.032;21.978;2022-08-14T19:44:06;14.02;;;9.95;;
37131;SDS011;23035;50.032;21.978;2022-08-14T19:49:12;15.63;;;11.18;;
37131;SDS011;23035;50.032;21.978;2022-08-14T19:54:38;17.55;;;11.57;;
37131;SDS011;23035;50.032;21.978;2022-08-14T20:04:59;18.83;;;10.98;;
37131;SDS011;23035;50.032;21.978;2022-08-14T20:10:07;13.15;;;10.35;;
37131;SDS011;23035;50.032;21.978;2022-08-14T20:15:35;25.00;;;16.75;;
37131;SDS011;23035;50.032;21.978;2022-08-14T20:20:48;15.10;;;9.97;;
37131;SDS011;23035;50.032;21.978;2022-08-14T20:25:56;12.10;;;9.02;;
37131;SDS011;23035;50.032;21.978;2022-08-14T20:31:10;18.83;;;11.70;;
37131;SDS011;23035;50.032;21.978;2022-08-14T20:36:17;14.77;;;11.85;;
37131;SDS011;23035;50.032;21.978;2022-08-14T20:41:31;15.60;;;11.00;;
37131;SDS011;23035;50.032;21.978;2022-08-14T20:46:36;15.18;;;10.57;;
37131;SDS011;23035;50.032;21.978;2022-08-14T20:51:44;16.42;;;9.88;;
37131;SDS011;23035;50.032;21.978;2022-08-14T20:57:05;16.63;;;10.35;;
37131;SDS011;23035;50.032;21.978;2022-08-14T21:02:19;14.00;;;9.07;;
37131;SDS011;23035;50.032;21.978;2022-08-14T21:07:39;35.10;;;21.77;;
37131;SDS011;23035;50.032;21.978;2022-08-14T21:12:43;14.40;;;10.50;;
37131;SDS011;23035;50.032;21.978;2022-08-14T21:18:08;17.02;;;10.50;;
37131;SDS011;23035;50.032;21.978;2022-08-14T21:23:17;14.68;;;9.75;;
37131;SDS011;23035;50.032;21.978;2022-08-14T21:28:22;17.80;;;11.57;;
37131;SDS011;23035;50.032;21.978;2022-08-14T21:33:33;13.57;;;10.23;;
37131;SDS011;23035;50.032;21.978;2022-08-14T21:38:44;18.45;;;10.95;;
37131;SDS011;23035;50.032;21.978;2022-08-14T21:43:48;18.00;;;10.88;;
37131;SDS011;23035;50.032;21.978;2022-08-14T21:49:24;14.77;;;9.90;;
37131;SDS011;23035;50.032;21.978;2022-08-14T21:54:39;19.58;;;10.50;;
37131;SDS011;23035;50.032;21.978;2022-08-14T21:59:51;17.90;;;11.52;;
37131;SDS011;23035;50.032;21.978;2022-08-14T22:04:56;17.80;;;11.18;;
37131;SDS011;23035;50.032;21.978;2022-08-14T22:10:00;23.05;;;10.35;;
37131;SDS011;23035;50.032;21.978;2022-08-14T22:15:08;16.50;;;10.63;;
37131;SDS011;23035;50.032;21.978;2022-08-14T22:20:17;15.27;;;10.82;;
37131;SDS011;23035;50.032;21.978;2022-08-14T22:25:22;14.57;;;10.52;;
37131;SDS011;23035;50.032;21.978;2022-08-14T22:30:35;14.18;;;10.30;;
37131;SDS011;23035;50.032;21.978;2022-08-14T22:35:44;13.52;;;9.52;;
37131;SDS011;23035;50.032;21.978;2022-08-14T22:40:57;16.53;;;11.20;;
37131;SDS011;23035;50.032;21.978;2022-08-14T22:46:21;13.73;;;9.48;;
37131;SDS011;23035;50.032;21.978;2022-08-14T22:51:29;14.35;;;9.05;;
37131;SDS011;23035;50.032;21.978;2022-08-14T22:56:49;19.00;;;10.40;;
37131;SDS011;23035;50.032;21.978;2022-08-14T23:01:58;21.50;;;10.10;;
37131;SDS011;23035;50.032;21.978;2022-08-14T23:07:06;16.50;;;9.38;;
37131;SDS011;23035;50.032;21.978;2022-08-14T23:12:24;14.38;;;9.50;;
37131;SDS011;23035;50.032;21.978;2022-08-14T23:17:31;14.75;;;10.27;;
37131;SDS011;23035;50.032;21.978;2022-08-14T23:22:43;16.70;;;8.77;;
37131;SDS011;23035;50.032;21.978;2022-08-14T23:27:48;12.52;;;8.35;;
37131;SDS011;23035;50.032;21.978;2022-08-14T23:33:05;13.35;;;9.90;;
37131;SDS011;23035;50.032;21.978;2022-08-14T23:38:20;15.95;;;11.65;;
37131;SDS011;23035;50.032;21.978;2022-08-14T23:43:32;18.50;;;10.98;;
37131;SDS011;23035;50.032;21.978;2022-08-14T23:48:36;17.40;;;11.68;;
37131;SDS011;23035;50.032;21.978;2022-08-14T23:53:50;19.63;;;11.27;;
37131;SDS011;23035;50.032;21.978;2022-08-14T23:58:54;13.70;;;10.68;;
